Terminal Aerodrome Forecast
Issued by NWS

Home | Current Version | Previous Version | Text Only | Print | Product List | Glossary On
Versions: 1 2 3 4 5 6 7 8 9 10 11 12 13 14 15 16 17 18
000
FTUS46 KLOX 021441 AAA
TAFOXR
TAF AMD
KOXR 021441Z 0215/0312 30007KT P6SM BKN006
     FM021510 29007KT P6SM SCT006
     FM021800 27008KT P6SM SCT150
     FM030300 VRB03KT P6SM SCT150
     FM030800 VRB03KT 4SM BR BKN007=

USA.gov is the U.S. government's official web portal to all federal, state and local government web resources and services.